sensor_id;sensor_type;location;lat;lon;timestamp;P1;durP1;ratioP1;P2;durP2;ratioP2
24801;SDS011;12898;50.520;12.152;2023-05-15T00:02:10;22.13;;;15.05;;
24801;SDS011;12898;50.520;12.152;2023-05-15T00:04:37;22.60;;;14.95;;
24801;SDS011;12898;50.520;12.152;2023-05-15T00:07:02;23.55;;;15.77;;
24801;SDS011;12898;50.520;12.152;2023-05-15T00:09:28;24.38;;;16.63;;
24801;SDS011;12898;50.520;12.152;2023-05-15T00:11:54;23.17;;;15.98;;
24801;SDS011;12898;50.520;12.152;2023-05-15T00:14:20;22.85;;;14.90;;
24801;SDS011;12898;50.520;12.152;2023-05-15T00:16:46;23.63;;;15.13;;
24801;SDS011;12898;50.520;12.152;2023-05-15T00:19:11;21.92;;;15.43;;
24801;SDS011;12898;50.520;12.152;2023-05-15T00:21:37;23.55;;;15.68;;
24801;SDS011;12898;50.520;12.152;2023-05-15T00:24:03;23.75;;;15.80;;
24801;SDS011;12898;50.520;12.152;2023-05-15T00:26:28;25.50;;;15.77;;
24801;SDS011;12898;50.520;12.152;2023-05-15T00:28:54;22.08;;;13.38;;
24801;SDS011;12898;50.520;12.152;2023-05-15T00:31:20;22.65;;;14.85;;
24801;SDS011;12898;50.520;12.152;2023-05-15T00:33:46;22.23;;;14.80;;
24801;SDS011;12898;50.520;12.152;2023-05-15T00:36:12;24.45;;;14.73;;
24801;SDS011;12898;50.520;12.152;2023-05-15T00:38:37;23.85;;;15.50;;
24801;SDS011;12898;50.520;12.152;2023-05-15T00:41:05;23.17;;;14.95;;
24801;SDS011;12898;50.520;12.152;2023-05-15T00:43:31;24.17;;;15.95;;
24801;SDS011;12898;50.520;12.152;2023-05-15T00:45:59;24.92;;;15.85;;
24801;SDS011;12898;50.520;12.152;2023-05-15T00:48:26;23.67;;;15.50;;
24801;SDS011;12898;50.520;12.152;2023-05-15T00:50:54;26.10;;;15.30;;
24801;SDS011;12898;50.520;12.152;2023-05-15T00:53:22;24.98;;;15.98;;
24801;SDS011;12898;50.520;12.152;2023-05-15T00:55:48;32.65;;;19.17;;
24801;SDS011;12898;50.520;12.152;2023-05-15T00:58:14;24.30;;;16.27;;
24801;SDS011;12898;50.520;12.152;2023-05-15T01:00:44;23.60;;;15.63;;
24801;SDS011;12898;50.520;12.152;2023-05-15T01:03:12;27.08;;;16.33;;
24801;SDS011;12898;50.520;12.152;2023-05-15T01:05:38;24.15;;;16.38;;
24801;SDS011;12898;50.520;12.152;2023-05-15T01:08:07;25.70;;;17.27;;
24801;SDS011;12898;50.520;12.152;2023-05-15T01:11:03;23.75;;;16.38;;
24801;SDS011;12898;50.520;12.152;2023-05-15T01:13:31;24.67;;;15.65;;
24801;SDS011;12898;50.520;12.152;2023-05-15T01:15:57;26.57;;;16.03;;
24801;SDS011;12898;50.520;12.152;2023-05-15T01:18:23;26.35;;;16.38;;
24801;SDS011;12898;50.520;12.152;2023-05-15T01:21:06;24.08;;;16.17;;
24801;SDS011;12898;50.520;12.152;2023-05-15T01:32:46;23.85;;;15.90;;
24801;SDS011;12898;50.520;12.152;2023-05-15T01:35:22;25.00;;;16.67;;
24801;SDS011;12898;50.520;12.152;2023-05-15T01:40:54;25.20;;;16.10;;
24801;SDS011;12898;50.520;12.152;2023-05-15T01:43:27;24.85;;;15.50;;
24801;SDS011;12898;50.520;12.152;2023-05-15T01:45:56;22.42;;;14.88;;
24801;SDS011;12898;50.520;12.152;2023-05-15T01:48:23;24.45;;;17.38;;
24801;SDS011;12898;50.520;12.152;2023-05-15T01:50:53;21.50;;;15.05;;
24801;SDS011;12898;50.520;12.152;2023-05-15T01:53:22;21.85;;;15.45;;
24801;SDS011;12898;50.520;12.152;2023-05-15T01:55:49;20.85;;;14.15;;
24801;SDS011;12898;50.520;12.152;2023-05-15T01:58:15;21.35;;;14.23;;
24801;SDS011;12898;50.520;12.152;2023-05-15T02:00:42;22.90;;;14.35;;
24801;SDS011;12898;50.520;12.152;2023-05-15T02:03:09;21.25;;;13.80;;
24801;SDS011;12898;50.520;12.152;2023-05-15T02:05:35;19.42;;;13.52;;
24801;SDS011;12898;50.520;12.152;2023-05-15T02:08:03;20.27;;;14.40;;
24801;SDS011;12898;50.520;12.152;2023-05-15T02:10:29;22.25;;;13.75;;
24801;SDS011;12898;50.520;12.152;2023-05-15T02:12:57;18.77;;;13.32;;
24801;SDS011;12898;50.520;12.152;2023-05-15T02:15:24;21.25;;;14.48;;
24801;SDS011;12898;50.520;12.152;2023-05-15T02:17:51;19.00;;;12.75;;
24801;SDS011;12898;50.520;12.152;2023-05-15T02:20:17;19.58;;;13.05;;
24801;SDS011;12898;50.520;12.152;2023-05-15T02:22:42;19.60;;;13.38;;
24801;SDS011;12898;50.520;12.152;2023-05-15T02:25:08;19.05;;;13.43;;
24801;SDS011;12898;50.520;12.152;2023-05-15T02:27:56;18.75;;;13.25;;
24801;SDS011;12898;50.520;12.152;2023-05-15T02:33:49;21.35;;;14.00;;
24801;SDS011;12898;50.520;12.152;2023-05-15T02:36:27;21.40;;;14.35;;
24801;SDS011;12898;50.520;12.152;2023-05-15T02:38:56;19.08;;;12.27;;
24801;SDS011;12898;50.520;12.152;2023-05-15T02:41:23;19.15;;;12.65;;
24801;SDS011;12898;50.520;12.152;2023-05-15T02:43:50;20.70;;;13.15;;
24801;SDS011;12898;50.520;12.152;2023-05-15T02:46:19;17.60;;;12.05;;
24801;SDS011;12898;50.520;12.152;2023-05-15T02:48:46;18.67;;;12.23;;
24801;SDS011;12898;50.520;12.152;2023-05-15T02:51:12;19.27;;;12.45;;
24801;SDS011;12898;50.520;12.152;2023-05-15T02:53:38;20.02;;;12.00;;
24801;SDS011;12898;50.520;12.152;2023-05-15T02:56:05;17.27;;;12.40;;
24801;SDS011;12898;50.520;12.152;2023-05-15T02:58:32;17.00;;;11.63;;
24801;SDS011;12898;50.520;12.152;2023-05-15T03:00:58;18.65;;;12.02;;
24801;SDS011;12898;50.520;12.152;2023-05-15T03:03:24;18.85;;;12.50;;
24801;SDS011;12898;50.520;12.152;2023-05-15T03:05:50;17.77;;;12.63;;
24801;SDS011;12898;50.520;12.152;2023-05-15T03:08:16;19.33;;;14.18;;
24801;SDS011;12898;50.520;12.152;2023-05-15T03:10:43;21.25;;;14.57;;
24801;SDS011;12898;50.520;12.152;2023-05-15T03:13:09;21.63;;;14.32;;
24801;SDS011;12898;50.520;12.152;2023-05-15T03:15:35;20.70;;;14.60;;
24801;SDS011;12898;50.520;12.152;2023-05-15T03:18:00;20.90;;;14.98;;
24801;SDS011;12898;50.520;12.152;2023-05-15T03:20:26;23.60;;;15.85;;
24801;SDS011;12898;50.520;12.152;2023-05-15T03:22:52;24.52;;;17.83;;
24801;SDS011;12898;50.520;12.152;2023-05-15T03:25:18;24.13;;;18.05;;
24801;SDS011;12898;50.520;12.152;2023-05-15T03:27:44;30.52;;;20.27;;
24801;SDS011;12898;50.520;12.152;2023-05-15T03:30:09;28.33;;;20.20;;
24801;SDS011;12898;50.520;12.152;2023-05-15T03:32:35;27.48;;;18.33;;
24801;SDS011;12898;50.520;12.152;2023-05-15T03:35:01;25.63;;;17.67;;
24801;SDS011;12898;50.520;12.152;2023-05-15T03:37:27;24.63;;;16.93;;
24801;SDS011;12898;50.520;12.152;2023-05-15T03:39:52;25.07;;;18.13;;
24801;SDS011;12898;50.520;12.152;2023-05-15T03:42:18;25.02;;;16.48;;
24801;SDS011;12898;50.520;12.152;2023-05-15T03:44:47;25.77;;;17.67;;
24801;SDS011;12898;50.520;12.152;2023-05-15T03:47:14;22.98;;;16.40;;
24801;SDS011;12898;50.520;12.152;2023-05-15T03:49:40;25.57;;;16.37;;
24801;SDS011;12898;50.520;12.152;2023-05-15T03:52:06;24.85;;;17.17;;
24801;SDS011;12898;50.520;12.152;2023-05-15T03:54:32;27.27;;;18.30;;
24801;SDS011;12898;50.520;12.152;2023-05-15T03:56:59;24.73;;;16.73;;
24801;SDS011;12898;50.520;12.152;2023-05-15T03:59:24;24.55;;;16.40;;
24801;SDS011;12898;50.520;12.152;2023-05-15T04:01:50;26.47;;;16.97;;
24801;SDS011;12898;50.520;12.152;2023-05-15T04:04:16;33.70;;;16.02;;
24801;SDS011;12898;50.520;12.152;2023-05-15T04:06:41;22.47;;;14.43;;
24801;SDS011;12898;50.520;12.152;2023-05-15T04:09:07;20.90;;;14.10;;
24801;SDS011;12898;50.520;12.152;2023-05-15T04:11:33;24.30;;;16.83;;
24801;SDS011;12898;50.520;12.152;2023-05-15T04:13:59;30.60;;;20.10;;
24801;SDS011;12898;50.520;12.152;2023-05-15T04:16:25;26.10;;;18.97;;
24801;SDS011;12898;50.520;12.152;2023-05-15T04:18:51;26.00;;;17.40;;
24801;SDS011;12898;50.520;12.152;2023-05-15T04:21:17;24.73;;;16.52;;
24801;SDS011;12898;50.520;12.152;2023-05-15T04:23:42;23.85;;;15.52;;
24801;SDS011;12898;50.520;12.152;2023-05-15T04:26:08;21.88;;;15.05;;
24801;SDS011;12898;50.520;12.152;2023-05-15T04:28:34;24.38;;;15.73;;
24801;SDS011;12898;50.520;12.152;2023-05-15T04:30:59;25.83;;;15.50;;
24801;SDS011;12898;50.520;12.152;2023-05-15T04:33:25;21.70;;;14.57;;
24801;SDS011;12898;50.520;12.152;2023-05-15T04:35:51;23.70;;;15.73;;
24801;SDS011;12898;50.520;12.152;2023-05-15T04:38:17;23.10;;;14.50;;
24801;SDS011;12898;50.520;12.152;2023-05-15T04:40:43;20.27;;;12.88;;
24801;SDS011;12898;50.520;12.152;2023-05-15T04:43:09;20.52;;;13.98;;
24801;SDS011;12898;50.520;12.152;2023-05-15T04:45:35;21.35;;;14.48;;
24801;SDS011;12898;50.520;12.152;2023-05-15T04:48:00;22.90;;;14.70;;
24801;SDS011;12898;50.520;12.152;2023-05-15T04:50:26;21.60;;;13.40;;
24801;SDS011;12898;50.520;12.152;2023-05-15T04:52:52;21.77;;;13.93;;
24801;SDS011;12898;50.520;12.152;2023-05-15T04:55:18;22.70;;;14.10;;
24801;SDS011;12898;50.520;12.152;2023-05-15T04:57:45;18.83;;;13.35;;
24801;SDS011;12898;50.520;12.152;2023-05-15T05:00:12;22.95;;;15.15;;
24801;SDS011;12898;50.520;12.152;2023-05-15T05:02:38;21.48;;;15.20;;
24801;SDS011;12898;50.520;12.152;2023-05-15T05:05:05;20.85;;;14.43;;
24801;SDS011;12898;50.520;12.152;2023-05-15T05:07:34;22.00;;;15.50;;
24801;SDS011;12898;50.520;12.152;2023-05-15T05:10:00;21.55;;;13.40;;
24801;SDS011;12898;50.520;12.152;2023-05-15T05:12:26;23.30;;;15.20;;
24801;SDS011;12898;50.520;12.152;2023-05-15T05:14:52;21.08;;;14.60;;
24801;SDS011;12898;50.520;12.152;2023-05-15T05:17:19;23.77;;;14.55;;
24801;SDS011;12898;50.520;12.152;2023-05-15T05:19:45;21.77;;;15.02;;
24801;SDS011;12898;50.520;12.152;2023-05-15T05:22:10;23.30;;;15.43;;
24801;SDS011;12898;50.520;12.152;2023-05-15T05:24:36;21.00;;;14.90;;
24801;SDS011;12898;50.520;12.152;2023-05-15T05:27:04;22.25;;;14.98;;
24801;SDS011;12898;50.520;12.152;2023-05-15T05:29:30;20.58;;;13.63;;
24801;SDS011;12898;50.520;12.152;2023-05-15T05:31:56;19.95;;;14.07;;
24801;SDS011;12898;50.520;12.152;2023-05-15T05:34:22;23.17;;;14.63;;
24801;SDS011;12898;50.520;12.152;2023-05-15T05:36:48;19.73;;;14.60;;
24801;SDS011;12898;50.520;12.152;2023-05-15T05:39:14;20.38;;;14.80;;
24801;SDS011;12898;50.520;12.152;2023-05-15T05:41:40;19.73;;;13.57;;
24801;SDS011;12898;50.520;12.152;2023-05-15T05:44:07;18.55;;;12.63;;
24801;SDS011;12898;50.520;12.152;2023-05-15T05:46:32;18.83;;;13.60;;
24801;SDS011;12898;50.520;12.152;2023-05-15T05:48:58;19.02;;;13.25;;
24801;SDS011;12898;50.520;12.152;2023-05-15T05:51:24;19.10;;;12.45;;
24801;SDS011;12898;50.520;12.152;2023-05-15T05:53:50;17.42;;;12.45;;
24801;SDS011;12898;50.520;12.152;2023-05-15T05:56:15;17.67;;;13.45;;
24801;SDS011;12898;50.520;12.152;2023-05-15T05:58:41;19.45;;;14.10;;
24801;SDS011;12898;50.520;12.152;2023-05-15T06:01:07;19.17;;;13.85;;
24801;SDS011;12898;50.520;12.152;2023-05-15T06:03:33;18.50;;;12.60;;
24801;SDS011;12898;50.520;12.152;2023-05-15T06:05:59;18.40;;;13.63;;
24801;SDS011;12898;50.520;12.152;2023-05-15T06:08:25;19.15;;;14.07;;
24801;SDS011;12898;50.520;12.152;2023-05-15T06:10:52;20.17;;;14.50;;
24801;SDS011;12898;50.520;12.152;2023-05-15T06:13:18;18.77;;;14.40;;
24801;SDS011;12898;50.520;12.152;2023-05-15T06:15:44;19.67;;;14.20;;
24801;SDS011;12898;50.520;12.152;2023-05-15T06:18:11;18.52;;;12.80;;
24801;SDS011;12898;50.520;12.152;2023-05-15T06:20:37;18.88;;;13.75;;
24801;SDS011;12898;50.520;12.152;2023-05-15T06:23:02;17.63;;;13.57;;
24801;SDS011;12898;50.520;12.152;2023-05-15T06:25:28;19.73;;;14.02;;
24801;SDS011;12898;50.520;12.152;2023-05-15T06:27:54;19.80;;;13.98;;
24801;SDS011;12898;50.520;12.152;2023-05-15T06:30:20;20.60;;;14.18;;
24801;SDS011;12898;50.520;12.152;2023-05-15T06:32:46;19.48;;;15.40;;
24801;SDS011;12898;50.520;12.152;2023-05-15T06:35:12;19.48;;;15.10;;
24801;SDS011;12898;50.520;12.152;2023-05-15T06:37:38;18.27;;;13.57;;
24801;SDS011;12898;50.520;12.152;2023-05-15T06:40:04;18.67;;;13.48;;
24801;SDS011;12898;50.520;12.152;2023-05-15T06:42:30;16.80;;;12.95;;
24801;SDS011;12898;50.520;12.152;2023-05-15T06:44:56;17.50;;;13.18;;
24801;SDS011;12898;50.520;12.152;2023-05-15T06:47:23;17.45;;;13.48;;
24801;SDS011;12898;50.520;12.152;2023-05-15T06:49:49;16.30;;;12.70;;
24801;SDS011;12898;50.520;12.152;2023-05-15T06:52:15;19.55;;;13.32;;
24801;SDS011;12898;50.520;12.152;2023-05-15T06:54:40;17.10;;;12.93;;
24801;SDS011;12898;50.520;12.152;2023-05-15T06:57:07;16.40;;;12.07;;
24801;SDS011;12898;50.520;12.152;2023-05-15T06:59:33;15.80;;;12.68;;
24801;SDS011;12898;50.520;12.152;2023-05-15T07:02:00;16.63;;;12.13;;
24801;SDS011;12898;50.520;12.152;2023-05-15T07:04:26;16.38;;;13.07;;
24801;SDS011;12898;50.520;12.152;2023-05-15T07:06:54;16.98;;;12.30;;
24801;SDS011;12898;50.520;12.152;2023-05-15T07:09:19;15.15;;;11.93;;
24801;SDS011;12898;50.520;12.152;2023-05-15T07:11:45;18.17;;;11.75;;
24801;SDS011;12898;50.520;12.152;2023-05-15T07:14:11;15.25;;;11.30;;
24801;SDS011;12898;50.520;12.152;2023-05-15T07:16:36;14.27;;;10.95;;
24801;SDS011;12898;50.520;12.152;2023-05-15T07:19:02;14.02;;;10.90;;
24801;SDS011;12898;50.520;12.152;2023-05-15T07:21:28;15.68;;;10.70;;
24801;SDS011;12898;50.520;12.152;2023-05-15T07:23:53;13.68;;;10.98;;
24801;SDS011;12898;50.520;12.152;2023-05-15T07:26:19;15.00;;;9.75;;
24801;SDS011;12898;50.520;12.152;2023-05-15T07:28:45;14.57;;;8.32;;
24801;SDS011;12898;50.520;12.152;2023-05-15T07:31:11;11.50;;;8.05;;
24801;SDS011;12898;50.520;12.152;2023-05-15T07:33:36;12.18;;;8.32;;
24801;SDS011;12898;50.520;12.152;2023-05-15T07:36:02;12.80;;;8.73;;
24801;SDS011;12898;50.520;12.152;2023-05-15T07:38:28;12.23;;;8.63;;
24801;SDS011;12898;50.520;12.152;2023-05-15T07:40:54;12.13;;;8.57;;
24801;SDS011;12898;50.520;12.152;2023-05-15T07:43:19;11.20;;;8.05;;
24801;SDS011;12898;50.520;12.152;2023-05-15T07:45:45;12.68;;;8.60;;
24801;SDS011;12898;50.520;12.152;2023-05-15T07:48:14;12.75;;;8.25;;
24801;SDS011;12898;50.520;12.152;2023-05-15T07:50:43;11.02;;;7.85;;
24801;SDS011;12898;50.520;12.152;2023-05-15T07:53:10;11.68;;;8.15;;
24801;SDS011;12898;50.520;12.152;2023-05-15T07:55:36;13.85;;;8.60;;
24801;SDS011;12898;50.520;12.152;2023-05-15T07:58:02;13.85;;;8.27;;
24801;SDS011;12898;50.520;12.152;2023-05-15T08:00:28;12.68;;;7.95;;
24801;SDS011;12898;50.520;12.152;2023-05-15T08:02:53;17.45;;;8.40;;
24801;SDS011;12898;50.520;12.152;2023-05-15T08:05:19;11.32;;;8.15;;
24801;SDS011;12898;50.520;12.152;2023-05-15T08:07:45;15.10;;;9.18;;
24801;SDS011;12898;50.520;12.152;2023-05-15T08:10:10;12.90;;;7.93;;
24801;SDS011;12898;50.520;12.152;2023-05-15T08:12:36;10.73;;;7.90;;
24801;SDS011;12898;50.520;12.152;2023-05-15T08:15:02;10.43;;;7.35;;
24801;SDS011;12898;50.520;12.152;2023-05-15T08:17:28;10.40;;;6.85;;
24801;SDS011;12898;50.520;12.152;2023-05-15T08:19:54;11.25;;;7.00;;
24801;SDS011;12898;50.520;12.152;2023-05-15T08:22:20;9.68;;;7.30;;
24801;SDS011;12898;50.520;12.152;2023-05-15T08:24:45;10.30;;;6.78;;
24801;SDS011;12898;50.520;12.152;2023-05-15T08:27:11;10.98;;;7.32;;
24801;SDS011;12898;50.520;12.152;2023-05-15T08:29:37;10.32;;;6.63;;
24801;SDS011;12898;50.520;12.152;2023-05-15T08:32:04;10.13;;;6.53;;
24801;SDS011;12898;50.520;12.152;2023-05-15T08:34:31;9.77;;;6.00;;
24801;SDS011;12898;50.520;12.152;2023-05-15T08:36:57;10.80;;;6.18;;
24801;SDS011;12898;50.520;12.152;2023-05-15T08:39:23;8.93;;;5.97;;
24801;SDS011;12898;50.520;12.152;2023-05-15T08:41:51;10.30;;;6.22;;
24801;SDS011;12898;50.520;12.152;2023-05-15T08:44:17;8.95;;;5.10;;
24801;SDS011;12898;50.520;12.152;2023-05-15T08:46:45;8.63;;;5.82;;
24801;SDS011;12898;50.520;12.152;2023-05-15T08:49:20;9.02;;;6.05;;
24801;SDS011;12898;50.520;12.152;2023-05-15T08:52:01;7.53;;;5.05;;
24801;SDS011;12898;50.520;12.152;2023-05-15T08:54:28;8.57;;;5.38;;
24801;SDS011;12898;50.520;12.152;2023-05-15T08:56:54;8.40;;;5.15;;
24801;SDS011;12898;50.520;12.152;2023-05-15T08:59:20;6.45;;;5.15;;
24801;SDS011;12898;50.520;12.152;2023-05-15T09:01:46;7.95;;;5.18;;
24801;SDS011;12898;50.520;12.152;2023-05-15T09:04:13;9.65;;;6.03;;
24801;SDS011;12898;50.520;12.152;2023-05-15T09:06:39;6.32;;;4.80;;
24801;SDS011;12898;50.520;12.152;2023-05-15T09:09:07;7.93;;;4.70;;
24801;SDS011;12898;50.520;12.152;2023-05-15T09:11:37;10.50;;;5.38;;
24801;SDS011;12898;50.520;12.152;2023-05-15T09:14:07;9.52;;;4.85;;
24801;SDS011;12898;50.520;12.152;2023-05-15T09:16:33;10.38;;;5.45;;
24801;SDS011;12898;50.520;12.152;2023-05-15T09:18:59;7.53;;;4.78;;
24801;SDS011;12898;50.520;12.152;2023-05-15T09:21:26;7.75;;;5.30;;
24801;SDS011;12898;50.520;12.152;2023-05-15T09:23:54;7.43;;;5.40;;
24801;SDS011;12898;50.520;12.152;2023-05-15T09:26:41;10.65;;;5.15;;
24801;SDS011;12898;50.520;12.152;2023-05-15T09:29:07;7.53;;;4.93;;
24801;SDS011;12898;50.520;12.152;2023-05-15T09:31:33;5.97;;;4.60;;
24801;SDS011;12898;50.520;12.152;2023-05-15T09:34:00;8.60;;;4.90;;
24801;SDS011;12898;50.520;12.152;2023-05-15T09:36:28;8.63;;;5.18;;
24801;SDS011;12898;50.520;12.152;2023-05-15T09:38:58;9.38;;;5.40;;
24801;SDS011;12898;50.520;12.152;2023-05-15T09:41:25;10.23;;;5.63;;
24801;SDS011;12898;50.520;12.152;2023-05-15T09:43:52;9.80;;;5.97;;
24801;SDS011;12898;50.520;12.152;2023-05-15T09:46:21;9.65;;;5.70;;
24801;SDS011;12898;50.520;12.152;2023-05-15T09:48:48;8.95;;;5.38;;
24801;SDS011;12898;50.520;12.152;2023-05-15T09:51:18;7.30;;;5.60;;
24801;SDS011;12898;50.520;12.152;2023-05-15T09:53:50;7.45;;;5.35;;
24801;SDS011;12898;50.520;12.152;2023-05-15T09:56:17;6.93;;;4.82;;
24801;SDS011;12898;50.520;12.152;2023-05-15T09:58:52;23.02;;;6.93;;
24801;SDS011;12898;50.520;12.152;2023-05-15T10:01:20;9.85;;;5.75;;
24801;SDS011;12898;50.520;12.152;2023-05-15T10:04:00;8.88;;;5.60;;
24801;SDS011;12898;50.520;12.152;2023-05-15T10:06:35;7.97;;;5.72;;
24801;SDS011;12898;50.520;12.152;2023-05-15T10:09:05;8.05;;;4.93;;
24801;SDS011;12898;50.520;12.152;2023-05-15T10:11:33;6.43;;;4.75;;
24801;SDS011;12898;50.520;12.152;2023-05-15T10:14:01;10.23;;;5.65;;
24801;SDS011;12898;50.520;12.152;2023-05-15T10:16:32;8.00;;;5.65;;
24801;SDS011;12898;50.520;12.152;2023-05-15T10:19:02;13.93;;;6.57;;
24801;SDS011;12898;50.520;12.152;2023-05-15T10:21:30;9.40;;;6.20;;
24801;SDS011;12898;50.520;12.152;2023-05-15T10:23:58;10.48;;;6.15;;
24801;SDS011;12898;50.520;12.152;2023-05-15T10:26:28;9.02;;;5.90;;
24801;SDS011;12898;50.520;12.152;2023-05-15T10:29:01;9.40;;;6.97;;
24801;SDS011;12898;50.520;12.152;2023-05-15T10:31:29;9.95;;;6.95;;
24801;SDS011;12898;50.520;12.152;2023-05-15T10:33:55;11.93;;;6.72;;
24801;SDS011;12898;50.520;12.152;2023-05-15T10:36:22;8.98;;;6.68;;
24801;SDS011;12898;50.520;12.152;2023-05-15T10:38:48;8.93;;;6.13;;
24801;SDS011;12898;50.520;12.152;2023-05-15T10:41:16;9.13;;;6.50;;
24801;SDS011;12898;50.520;12.152;2023-05-15T10:43:47;10.05;;;6.78;;
24801;SDS011;12898;50.520;12.152;2023-05-15T10:46:13;10.10;;;6.10;;
24801;SDS011;12898;50.520;12.152;2023-05-15T10:48:40;9.88;;;6.65;;
24801;SDS011;12898;50.520;12.152;2023-05-15T10:51:16;13.27;;;7.63;;
24801;SDS011;12898;50.520;12.152;2023-05-15T10:53:48;10.52;;;6.80;;
24801;SDS011;12898;50.520;12.152;2023-05-15T10:56:15;10.23;;;6.43;;
24801;SDS011;12898;50.520;12.152;2023-05-15T10:58:47;9.82;;;6.93;;
24801;SDS011;12898;50.520;12.152;2023-05-15T11:04:03;11.02;;;7.85;;
24801;SDS011;12898;50.520;12.152;2023-05-15T11:06:41;10.95;;;7.63;;
24801;SDS011;12898;50.520;12.152;2023-05-15T11:14:22;13.45;;;7.82;;
24801;SDS011;12898;50.520;12.152;2023-05-15T11:19:21;10.23;;;7.43;;
24801;SDS011;12898;50.520;12.152;2023-05-15T11:21:56;12.98;;;7.60;;
24801;SDS011;12898;50.520;12.152;2023-05-15T11:24:31;12.15;;;7.30;;
24801;SDS011;12898;50.520;12.152;2023-05-15T11:27:12;12.73;;;7.50;;
24801;SDS011;12898;50.520;12.152;2023-05-15T11:35:55;10.23;;;7.07;;
24801;SDS011;12898;50.520;12.152;2023-05-15T11:38:01;18.10;;;8.75;;
24801;SDS011;12898;50.520;12.152;2023-05-15T11:40:46;11.90;;;7.07;;
24801;SDS011;12898;50.520;12.152;2023-05-15T11:43:29;9.52;;;6.45;;
24801;SDS011;12898;50.520;12.152;2023-05-15T11:46:05;10.90;;;7.57;;
24801;SDS011;12898;50.520;12.152;2023-05-15T11:48:38;9.70;;;7.30;;
24801;SDS011;12898;50.520;12.152;2023-05-15T11:51:07;10.43;;;6.90;;
24801;SDS011;12898;50.520;12.152;2023-05-15T11:53:47;11.13;;;7.40;;
24801;SDS011;12898;50.520;12.152;2023-05-15T11:56:18;12.13;;;7.30;;
24801;SDS011;12898;50.520;12.152;2023-05-15T11:58:50;12.45;;;7.07;;
24801;SDS011;12898;50.520;12.152;2023-05-15T12:01:19;12.82;;;7.38;;
24801;SDS011;12898;50.520;12.152;2023-05-15T12:03:45;11.25;;;6.75;;
24801;SDS011;12898;50.520;12.152;2023-05-15T12:06:12;8.30;;;5.55;;
24801;SDS011;12898;50.520;12.152;2023-05-15T12:08:38;10.48;;;5.78;;
24801;SDS011;12898;50.520;12.152;2023-05-15T12:11:06;7.18;;;4.38;;
24801;SDS011;12898;50.520;12.152;2023-05-15T12:13:32;7.70;;;4.70;;
24801;SDS011;12898;50.520;12.152;2023-05-15T12:15:59;6.70;;;4.35;;
24801;SDS011;12898;50.520;12.152;2023-05-15T12:18:27;6.93;;;4.80;;
24801;SDS011;12898;50.520;12.152;2023-05-15T12:20:55;9.60;;;4.88;;
24801;SDS011;12898;50.520;12.152;2023-05-15T12:23:21;9.98;;;4.30;;
24801;SDS011;12898;50.520;12.152;2023-05-15T12:25:49;5.88;;;4.05;;
24801;SDS011;12898;50.520;12.152;2023-05-15T12:28:18;8.50;;;4.30;;
24801;SDS011;12898;50.520;12.152;2023-05-15T12:30:45;6.35;;;3.90;;
24801;SDS011;12898;50.520;12.152;2023-05-15T12:33:11;8.95;;;4.30;;
24801;SDS011;12898;50.520;12.152;2023-05-15T12:35:41;7.15;;;3.47;;
24801;SDS011;12898;50.520;12.152;2023-05-15T12:38:16;6.72;;;4.13;;
24801;SDS011;12898;50.520;12.152;2023-05-15T12:40:42;5.57;;;4.07;;
24801;SDS011;12898;50.520;12.152;2023-05-15T12:43:09;6.22;;;3.80;;
24801;SDS011;12898;50.520;12.152;2023-05-15T12:45:38;5.20;;;4.00;;
24801;SDS011;12898;50.520;12.152;2023-05-15T12:48:05;7.97;;;4.13;;
24801;SDS011;12898;50.520;12.152;2023-05-15T12:50:32;7.93;;;4.03;;
24801;SDS011;12898;50.520;12.152;2023-05-15T12:53:00;6.15;;;4.13;;
24801;SDS011;12898;50.520;12.152;2023-05-15T12:55:29;7.65;;;4.07;;
24801;SDS011;12898;50.520;12.152;2023-05-15T12:58:00;7.18;;;4.20;;
24801;SDS011;12898;50.520;12.152;2023-05-15T13:00:35;5.72;;;4.10;;
24801;SDS011;12898;50.520;12.152;2023-05-15T13:03:03;6.97;;;4.30;;
24801;SDS011;12898;50.520;12.152;2023-05-15T13:05:30;7.65;;;4.75;;
24801;SDS011;12898;50.520;12.152;2023-05-15T13:07:58;11.10;;;4.72;;
24801;SDS011;12898;50.520;12.152;2023-05-15T13:10:25;12.20;;;5.00;;
24801;SDS011;12898;50.520;12.152;2023-05-15T13:12:51;8.07;;;4.75;;
24801;SDS011;12898;50.520;12.152;2023-05-15T13:15:31;7.75;;;4.88;;
24801;SDS011;12898;50.520;12.152;2023-05-15T13:23:11;7.88;;;5.05;;
24801;SDS011;12898;50.520;12.152;2023-05-15T13:25:42;6.40;;;4.72;;
24801;SDS011;12898;50.520;12.152;2023-05-15T13:28:08;10.07;;;4.63;;
24801;SDS011;12898;50.520;12.152;2023-05-15T13:30:35;10.18;;;4.82;;
24801;SDS011;12898;50.520;12.152;2023-05-15T13:33:05;6.78;;;4.25;;
24801;SDS011;12898;50.520;12.152;2023-05-15T13:35:32;7.32;;;4.70;;
24801;SDS011;12898;50.520;12.152;2023-05-15T13:37:57;9.00;;;5.22;;
24801;SDS011;12898;50.520;12.152;2023-05-15T13:40:23;9.25;;;4.90;;
24801;SDS011;12898;50.520;12.152;2023-05-15T13:42:49;9.75;;;5.07;;
24801;SDS011;12898;50.520;12.152;2023-05-15T13:45:15;7.95;;;4.82;;
24801;SDS011;12898;50.520;12.152;2023-05-15T13:47:41;8.95;;;5.20;;
24801;SDS011;12898;50.520;12.152;2023-05-15T13:50:08;8.27;;;4.60;;
24801;SDS011;12898;50.520;12.152;2023-05-15T13:52:36;10.73;;;5.40;;
24801;SDS011;12898;50.520;12.152;2023-05-15T13:55:02;6.85;;;4.38;;
24801;SDS011;12898;50.520;12.152;2023-05-15T13:57:29;8.27;;;4.63;;
24801;SDS011;12898;50.520;12.152;2023-05-15T13:59:56;14.35;;;4.90;;
24801;SDS011;12898;50.520;12.152;2023-05-15T14:02:21;11.32;;;5.10;;
24801;SDS011;12898;50.520;12.152;2023-05-15T14:04:50;8.48;;;4.82;;
24801;SDS011;12898;50.520;12.152;2023-05-15T14:07:17;12.27;;;4.70;;
24801;SDS011;12898;50.520;12.152;2023-05-15T14:09:43;7.57;;;4.80;;
24801;SDS011;12898;50.520;12.152;2023-05-15T14:12:09;8.52;;;4.90;;
24801;SDS011;12898;50.520;12.152;2023-05-15T14:14:35;9.00;;;5.00;;
24801;SDS011;12898;50.520;12.152;2023-05-15T14:17:00;8.25;;;4.88;;
24801;SDS011;12898;50.520;12.152;2023-05-15T14:19:26;7.80;;;4.85;;
24801;SDS011;12898;50.520;12.152;2023-05-15T14:21:52;8.57;;;4.80;;
24801;SDS011;12898;50.520;12.152;2023-05-15T14:24:18;7.72;;;4.97;;
24801;SDS011;12898;50.520;12.152;2023-05-15T14:26:43;10.50;;;5.13;;
24801;SDS011;12898;50.520;12.152;2023-05-15T14:29:09;7.68;;;5.18;;
24801;SDS011;12898;50.520;12.152;2023-05-15T14:31:35;7.35;;;4.95;;
24801;SDS011;12898;50.520;12.152;2023-05-15T14:34:01;10.95;;;5.35;;
24801;SDS011;12898;50.520;12.152;2023-05-15T14:36:29;9.48;;;5.15;;
24801;SDS011;12898;50.520;12.152;2023-05-15T14:38:55;8.02;;;5.40;;
24801;SDS011;12898;50.520;12.152;2023-05-15T14:41:20;8.73;;;4.95;;
24801;SDS011;12898;50.520;12.152;2023-05-15T14:43:46;9.13;;;4.72;;
24801;SDS011;12898;50.520;12.152;2023-05-15T14:46:12;10.30;;;5.85;;
24801;SDS011;12898;50.520;12.152;2023-05-15T14:48:37;8.48;;;4.93;;
24801;SDS011;12898;50.520;12.152;2023-05-15T14:51:03;8.05;;;4.65;;
24801;SDS011;12898;50.520;12.152;2023-05-15T14:53:29;9.15;;;5.10;;
24801;SDS011;12898;50.520;12.152;2023-05-15T14:55:55;9.82;;;5.53;;
24801;SDS011;12898;50.520;12.152;2023-05-15T14:58:22;10.23;;;5.20;;